Terminal Aerodrome Forecast
Issued by NWS Charleston, WV

Current Version | Previous Version | Text Only | Print | Product List | Glossary Off
Versions: 1 2 3 4 5 6 7 8 9 10 11 12 13 14 15 16 17 18 19 20 21 22 23 24 25 26 27

000
FTUS41 KRLX 281200 AAA
TAFEKN
TAF AMD
KEKN 281213Z 2812/2912 29011G18KT 6SM -SN OVC035
      TEMPO 2812/2815 2SM -SN BKN015
     FM281500 27008KT P6SM BKN030
     FM281700 27008KT P6SM BKN040
     FM282200 25004KT P6SM BKN080=

USA.gov is the U.S. government's official web portal to all federal, state and local government web resources and services.